Time;durP1;ratioP1;P1;durP2;ratioP2;P2;SDS_P1;SDS_P2;PMS_P1;PMS_P2;Temp;Humidity;BMP_temperature;BMP_pressure;BME280_temperature;BME280_humidity;BME280_pressure;Samples;Min_cycle;Max_cycle;Signal;HPM_P1;HPM_P2
2023/03/11 06:37:06;;;;;;;2.17;0.60;;;13.50;99.90;;;;;;5115567;27;1264593;-63
2023/03/11 06:39:32;;;;;;;11.25;1.05;;;13.50;99.90;;;;;;5133000;28;20061;-69
2023/03/11 06:41:58;;;;;;;1.83;0.88;;;13.50;99.90;;;;;;5115052;28;20074;-62
2023/03/11 06:44:26;;;;;;;3.38;0.75;;;13.50;99.90;;;;;;5132326;28;20035;-69
2023/03/11 06:46:52;;;;;;;3.28;0.77;;;13.50;99.90;;;;;;5115059;28;20031;-63
2023/03/11 06:49:18;;;;;;;2.28;0.90;;;13.50;99.90;;;;;;5131703;28;20428;-63
2023/03/11 06:51:44;;;;;;;2.28;0.70;;;13.50;99.90;;;;;;5130736;28;20039;-64
2023/03/11 06:54:12;;;;;;;3.72;0.85;;;13.50;99.90;;;;;;5110026;28;20024;-65
2023/03/11 06:56:38;;;;;;;7.50;0.93;;;13.60;99.90;;;;;;5112694;28;20181;-65
2023/03/11 06:59:06;;;;;;;6.80;1.55;;;13.60;99.90;;;;;;5095243;28;20084;-65
2023/03/11 07:01:33;;;;;;;8.57;1.33;;;13.60;99.90;;;;;;5112147;28;20039;-72
2023/03/11 07:04:01;;;;;;;7.20;1.35;;;13.60;99.90;;;;;;5129328;28;20030;-65
2023/03/11 07:06:28;;;;;;;9.07;1.45;;;13.60;99.90;;;;;;5132075;28;20042;-63
2023/03/11 07:09:02;;;;;;;12.82;1.77;;;13.60;99.90;;;;;;5115075;28;20114;-62
2023/03/11 07:11:29;;;;;;;6.75;1.20;;;13.60;99.90;;;;;;5132070;28;20023;-63
2023/03/11 07:14:04;;;;;;;9.80;1.48;;;13.60;99.90;;;;;;5132035;28;20035;-62
2023/03/11 07:16:32;;;;;;;7.43;1.33;;;13.60;99.90;;;;;;5132500;28;20088;-62
2023/03/11 07:19:05;;;;;;;9.70;1.40;;;13.70;99.90;;;;;;5111125;28;20043;-62
2023/03/11 07:21:32;;;;;;;5.43;1.33;;;13.70;99.90;;;;;;5113008;28;20032;-62
2023/03/11 07:24:00;;;;;;;4.47;1.23;;;13.70;99.90;;;;;;5112570;28;20314;-62
2023/03/11 07:26:28;;;;;;;7.18;1.25;;;13.70;99.90;;;;;;5112825;28;20343;-62
2023/03/11 07:28:55;;;;;;;6.07;1.23;;;13.70;99.90;;;;;;5111019;28;20038;-62
2023/03/11 07:31:24;;;;;;;7.03;1.50;;;13.80;99.90;;;;;;5111885;28;20028;-62
2023/03/11 07:33:51;;;;;;;6.22;1.17;;;13.70;99.90;;;;;;5110109;28;20114;-62
2023/03/11 07:36:20;;;;;;;6.85;1.30;;;13.70;99.90;;;;;;5112610;28;20039;-62
2023/03/11 07:38:46;;;;;;;6.57;1.70;;;13.80;99.90;;;;;;5111909;28;20031;-62
2023/03/11 07:41:14;;;;;;;5.15;1.42;;;13.80;99.90;;;;;;5112701;28;20024;-62
2023/03/11 07:43:41;;;;;;;6.68;1.40;;;13.80;99.90;;;;;;5112280;28;20020;-62
2023/03/11 07:46:11;;;;;;;5.13;1.13;;;13.80;99.90;;;;;;5112280;28;20304;-62
2023/03/11 07:48:38;;;;;;;5.20;1.10;;;13.80;99.90;;;;;;5097035;28;20020;-63
2023/03/11 07:51:11;;;;;;;6.45;1.50;;;13.80;99.90;;;;;;5102620;28;20134;-63
2023/03/11 07:53:39;;;;;;;6.32;1.38;;;13.80;99.90;;;;;;5116426;28;20027;-62
2023/03/11 07:56:06;;;;;;;5.05;1.15;;;13.80;99.90;;;;;;5116327;28;20154;-62
2023/03/11 07:58:33;;;;;;;7.00;1.35;;;13.80;99.90;;;;;;5096518;28;20038;-62
2023/03/11 08:01:07;;;;;;;3.88;1.27;;;13.80;99.90;;;;;;5096153;28;20177;-62
2023/03/11 08:03:33;;;;;;;8.68;1.00;;;13.80;99.90;;;;;;5094509;28;20020;-63
2023/03/11 08:06:00;;;;;;;3.22;1.08;;;13.80;99.90;;;;;;5100212;28;20040;-62
2023/03/11 08:08:26;;;;;;;4.05;1.20;;;13.90;99.90;;;;;;5112355;28;20058;-62
2023/03/11 08:10:52;;;;;;;5.43;1.20;;;13.90;99.90;;;;;;5096238;28;20080;-62
2023/03/11 08:13:18;;;;;;;6.28;1.55;;;13.90;99.90;;;;;;5111731;28;20427;-62
2023/03/11 08:15:43;;;;;;;7.13;1.20;;;13.90;99.90;;;;;;5108513;28;20024;-63
2023/03/11 08:18:09;;;;;;;6.45;1.40;;;13.90;99.90;;;;;;5109975;28;20331;-64
2023/03/11 08:20:39;;;;;;;7.38;1.20;;;13.90;99.90;;;;;;5112406;28;20100;-64
2023/03/11 08:23:05;;;;;;;5.57;1.42;;;13.90;99.90;;;;;;5115360;28;20035;-63
2023/03/11 08:25:31;;;;;;;3.55;0.93;;;13.90;99.90;;;;;;5113963;28;20035;-63
2023/03/11 08:27:57;;;;;;;4.07;1.05;;;13.90;99.90;;;;;;5114079;28;20369;-62
2023/03/11 08:30:23;;;;;;;3.80;1.05;;;13.90;99.90;;;;;;5116180;28;20073;-62
2023/03/11 08:32:49;;;;;;;2.90;1.08;;;13.90;99.90;;;;;;5112530;28;20032;-63
2023/03/11 08:35:16;;;;;;;2.55;1.10;;;14.00;99.90;;;;;;5115694;28;20031;-63
2023/03/11 08:37:42;;;;;;;3.17;1.15;;;14.00;99.90;;;;;;5113984;28;20137;-65
2023/03/11 08:40:09;;;;;;;3.03;1.10;;;14.00;99.90;;;;;;5113843;28;20787;-63
2023/03/11 08:42:35;;;;;;;2.95;0.93;;;14.00;99.90;;;;;;5115046;28;20031;-62
2023/03/11 08:45:01;;;;;;;2.90;1.00;;;14.00;99.90;;;;;;5117785;28;20357;-62
2023/03/11 08:47:27;;;;;;;1.75;0.82;;;14.00;99.90;;;;;;5098615;28;20036;-64
2023/03/11 08:49:53;;;;;;;2.33;0.70;;;13.90;99.90;;;;;;5114113;28;20034;-63
2023/03/11 08:52:19;;;;;;;4.05;1.05;;;14.00;99.90;;;;;;5116063;28;20430;-64
2023/03/11 08:54:45;;;;;;;3.95;0.98;;;14.00;99.90;;;;;;5117091;28;20030;-63
2023/03/11 08:57:11;;;;;;;3.13;1.08;;;14.00;99.90;;;;;;5116081;28;20057;-63
2023/03/11 08:59:37;;;;;;;4.13;1.15;;;14.00;99.90;;;;;;5116441;28;20032;-61
2023/03/11 09:02:03;;;;;;;3.55;0.90;;;14.00;99.90;;;;;;5112257;28;20027;-62
2023/03/11 09:04:29;;;;;;;2.78;1.20;;;14.00;99.90;;;;;;5112588;28;20032;-62
2023/03/11 09:06:54;;;;;;;2.67;0.90;;;14.10;99.90;;;;;;5107922;28;20423;-62
2023/03/11 09:09:20;;;;;;;1.98;0.93;;;14.10;99.90;;;;;;5114224;28;20074;-62
2023/03/11 09:11:47;;;;;;;2.33;1.00;;;14.10;99.90;;;;;;5114630;28;20036;-63
2023/03/11 09:14:13;;;;;;;4.72;1.45;;;14.10;99.90;;;;;;5116420;28;20101;-63
2023/03/11 09:16:39;;;;;;;4.28;1.20;;;14.10;99.90;;;;;;5116002;28;20036;-63
2023/03/11 09:19:06;;;;;;;4.22;1.00;;;14.10;99.90;;;;;;5115158;28;20081;-62
2023/03/11 09:21:33;;;;;;;5.15;1.20;;;14.10;99.90;;;;;;5116752;28;20037;-62
2023/03/11 09:23:59;;;;;;;3.05;0.98;;;14.20;99.90;;;;;;5116094;28;20020;-62
2023/03/11 09:26:26;;;;;;;5.28;1.13;;;14.20;99.90;;;;;;5116663;28;20102;-63
2023/03/11 09:28:52;;;;;;;2.28;0.82;;;14.20;99.90;;;;;;5116458;27;20039;-63
2023/03/11 09:31:18;;;;;;;4.00;1.17;;;14.20;99.90;;;;;;5116640;28;20032;-63
2023/03/11 09:33:45;;;;;;;2.50;0.90;;;14.20;99.90;;;;;;5114810;28;20030;-63
2023/03/11 09:36:17;;;;;;;4.30;0.90;;;14.20;99.90;;;;;;5107367;28;20031;-62
2023/03/11 09:38:44;;;;;;;4.97;1.10;;;14.30;99.90;;;;;;5105649;28;20669;-63
2023/03/11 09:41:24;;;;;;;2.70;0.90;;;14.30;99.90;;;;;;5106530;28;20501;-63
2023/03/11 09:44:35;;;;;;;3.58;0.95;;;14.30;99.90;;;;;;5106300;28;20423;-63
2023/03/11 09:47:19;;;;;;;3.47;0.95;;;14.30;99.90;;;;;;5044956;28;20040;-64
2023/03/11 09:50:21;;;;;;;2.55;0.70;;;14.30;99.90;;;;;;5102130;28;20365;-64
2023/03/11 09:53:07;;;;;;;3.67;1.25;;;14.40;99.90;;;;;;5107173;28;20030;-63
2023/03/11 09:55:39;;;;;;;2.88;1.13;;;14.30;99.90;;;;;;5107067;28;20020;-62
2023/03/11 09:58:16;;;;;;;4.32;1.00;;;14.30;99.90;;;;;;5110998;28;20024;-62
2023/03/11 10:00:43;;;;;;;2.95;1.00;;;14.30;99.90;;;;;;5115758;28;20369;-63
2023/03/11 10:03:34;;;;;;;1.35;0.80;;;14.30;99.90;;;;;;5114667;28;20074;-62
2023/03/11 10:06:21;;;;;;;2.20;0.93;;;14.40;99.90;;;;;;5106230;28;20031;-63
2023/03/11 10:09:01;;;;;;;3.42;1.00;;;14.30;99.90;;;;;;5112599;28;20028;-64
2023/03/11 10:11:37;;;;;;;3.78;0.85;;;14.40;99.90;;;;;;5109502;28;20031;-63
2023/03/11 10:14:13;;;;;;;3.53;1.10;;;14.40;99.90;;;;;;5107469;28;20060;-62
2023/03/11 10:16:41;;;;;;;2.80;0.93;;;14.40;99.90;;;;;;5105175;28;20479;-64
2023/03/11 10:19:13;;;;;;;1.98;0.80;;;14.40;99.90;;;;;;5108043;28;20048;-63
2023/03/11 10:22:02;;;;;;;2.00;0.90;;;14.40;99.90;;;;;;5111589;28;20330;-62
2023/03/11 10:25:00;;;;;;;2.22;0.85;;;14.40;99.90;;;;;;5113281;28;20114;-64
2023/03/11 10:27:36;;;;;;;2.88;0.98;;;14.40;99.90;;;;;;5101209;28;20507;-62
2023/03/11 10:30:08;;;;;;;;;;;14.40;99.90;;;;;;5114943;28;20027;-64
2023/03/11 10:32:46;;;;;;;1.60;0.95;;;14.40;99.90;;;;;;5108668;28;19908;-61
2023/03/11 10:35:21;;;;;;;2.17;0.80;;;14.40;99.90;;;;;;5108336;28;20027;-62
2023/03/11 10:37:51;;;;;;;2.17;1.00;;;14.40;99.90;;;;;;5109849;28;20059;-62
2023/03/11 10:40:25;;;;;;;2.35;0.93;;;14.40;99.90;;;;;;5106276;28;20027;-62
2023/03/11 10:42:54;;;;;;;1.60;0.80;;;14.40;99.90;;;;;;5108214;28;20084;-62
2023/03/11 10:45:22;;;;;;;4.70;1.00;;;14.50;99.90;;;;;;5109894;28;20115;-63
2023/03/11 10:47:48;;;;;;;5.57;0.93;;;14.50;99.90;;;;;;5105737;28;20122;-62
2023/03/11 10:50:16;;;;;;;4.15;0.90;;;14.50;99.90;;;;;;5113429;28;20027;-62
2023/03/11 10:53:09;;;;;;;3.40;0.90;;;14.50;99.90;;;;;;5114335;28;20043;-62
2023/03/11 10:55:45;;;;;;;4.10;0.98;;;14.50;99.90;;;;;;5104048;28;20031;-63
2023/03/11 10:58:18;;;;;;;3.72;0.82;;;14.50;99.90;;;;;;5111550;28;20334;-62
2023/03/11 11:00:44;;;;;;;4.07;0.95;;;14.50;99.90;;;;;;5109269;28;20027;-63
2023/03/11 11:03:22;;;;;;;3.97;1.08;;;14.60;99.90;;;;;;5113179;28;20118;-62
2023/03/11 11:05:58;;;;;;;4.35;0.80;;;14.60;99.90;;;;;;5115399;28;20039;-62
2023/03/11 11:08:24;;;;;;;3.28;0.70;;;14.60;99.90;;;;;;5112886;28;20046;-62
2023/03/11 11:10:56;;;;;;;4.22;1.02;;;14.50;99.90;;;;;;5115064;28;20063;-62
2023/03/11 11:13:25;;;;;;;3.60;1.00;;;14.60;99.90;;;;;;5111418;28;20042;-63
2023/03/11 11:16:01;;;;;;;4.75;1.00;;;14.60;99.90;;;;;;5110656;28;20469;-62
2023/03/11 11:18:33;;;;;;;2.72;0.93;;;14.60;99.90;;;;;;5109893;28;20315;-63
2023/03/11 11:21:12;;;;;;;2.10;0.77;;;14.60;99.90;;;;;;5110065;28;20356;-63
2023/03/11 11:23:42;;;;;;;3.83;0.90;;;14.60;99.90;;;;;;5112261;28;20023;-63
2023/03/11 11:26:21;;;;;;;3.90;0.95;;;14.60;99.90;;;;;;5112989;28;20055;-63
2023/03/11 11:29:09;;;;;;;3.50;1.10;;;14.70;99.90;;;;;;5118269;28;20034;-63
2023/03/11 11:31:37;;;;;;;4.10;0.90;;;14.70;99.90;;;;;;5117862;28;20024;-63
2023/03/11 11:34:05;;;;;;;3.05;0.93;;;14.70;99.90;;;;;;5117852;28;20035;-63
2023/03/11 11:36:35;;;;;;;5.85;1.00;;;14.70;99.90;;;;;;5118422;28;20126;-62
2023/03/11 11:39:09;;;;;;;4.55;1.15;;;14.70;99.90;;;;;;5117191;28;20035;-62
2023/03/11 11:41:36;;;;;;;4.72;0.98;;;14.70;99.90;;;;;;5114530;28;20426;-64
2023/03/11 11:44:09;;;;;;;6.75;1.13;;;14.70;99.90;;;;;;5115944;27;20047;-62
2023/03/11 11:46:55;;;;;;;13.20;1.48;;;14.70;99.90;;;;;;5114493;28;20031;-64
2023/03/11 11:49:23;;;;;;;;;;;14.70;99.90;;;;;;5112145;28;20027;-62
2023/03/11 11:52:10;;;;;;;17.08;1.63;;;14.70;99.90;;;;;;5112703;28;20222;-62
2023/03/11 11:58:13;;;;;;;18.88;1.77;;;14.70;99.90;;;;;;5092609;27;1435085;-63
2023/03/11 12:00:53;;;;;;;20.25;2.15;;;14.90;99.90;;;;;;5131853;27;20414;-64
2023/03/11 12:03:28;;;;;;;11.90;1.95;;;15.30;99.90;;;;;;5115469;27;20086;-64
2023/03/11 12:06:00;;;;;;;16.70;2.15;;;15.50;99.90;;;;;;5094086;28;20350;-62
2023/03/11 12:08:38;;;;;;;12.27;2.03;;;15.50;99.90;;;;;;5111923;28;20030;-62
2023/03/11 12:11:45;;;;;;;24.92;2.45;;;15.50;99.90;;;;;;5112728;28;20058;-62
2023/03/11 12:14:25;;;;;;;18.02;1.77;;;15.40;99.90;;;;;;5109437;28;20059;-63
2023/03/11 12:17:01;;;;;;;17.83;1.88;;;15.30;99.90;;;;;;5110347;28;20028;-65
2023/03/11 12:19:40;;;;;;;12.95;1.70;;;15.20;99.90;;;;;;5112152;28;20028;-66
2023/03/11 12:22:08;;;;;;;9.80;1.30;;;15.10;99.90;;;;;;5119322;28;20341;-64
2023/03/11 12:25:05;;;;;;;10.38;1.20;;;15.10;99.90;;;;;;5113399;28;20036;-64
2023/03/11 12:27:52;;;;;;;9.85;1.33;;;15.10;99.90;;;;;;5114693;28;20027;-64
2023/03/11 12:30:29;;;;;;;7.57;1.10;;;15.00;99.90;;;;;;5101102;28;20377;-64
2023/03/11 12:33:04;;;;;;;13.32;1.73;;;15.00;99.90;;;;;;5103540;28;20020;-64
2023/03/11 12:35:33;;;;;;;11.30;1.30;;;15.00;99.90;;;;;;5098435;28;20028;-64
2023/03/11 12:38:05;;;;;;;10.18;1.50;;;14.90;99.90;;;;;;5101974;28;20028;-65
2023/03/11 12:40:57;;;;;;;5.45;0.90;;;14.90;99.90;;;;;;5106456;28;20027;-64
2023/03/11 12:43:45;;;;;;;5.78;1.00;;;14.90;99.90;;;;;;5098476;28;20055;-64
2023/03/11 12:46:13;;;;;;;5.15;1.02;;;14.90;99.90;;;;;;5113255;28;20024;-66
2023/03/11 12:48:48;;;;;;;3.40;0.88;;;14.90;99.90;;;;;;5107256;28;20020;-66
2023/03/11 12:51:26;;;;;;;1.65;0.60;;;14.90;99.90;;;;;;5095311;28;20062;-64
2023/03/11 12:53:54;;;;;;;4.75;0.93;;;14.80;99.90;;;;;;5106867;28;20020;-66
2023/03/11 12:56:29;;;;;;;3.47;1.20;;;14.80;99.90;;;;;;5091804;28;20541;-63
2023/03/11 12:59:10;;;;;;;6.53;1.23;;;14.80;99.90;;;;;;5097967;28;20465;-64
2023/03/11 13:02:08;;;;;;;4.22;1.00;;;14.80;99.90;;;;;;5097492;28;20036;-63
2023/03/11 13:04:49;;;;;;;6.40;1.15;;;14.80;99.90;;;;;;5088891;28;20495;-63
2023/03/11 13:07:21;;;;;;;4.45;0.80;;;14.80;99.90;;;;;;5109619;28;20036;-63
2023/03/11 13:10:06;;;;;;;4.07;0.90;;;14.80;99.90;;;;;;5093890;28;20032;-63
2023/03/11 13:12:41;;;;;;;5.40;0.88;;;14.80;99.90;;;;;;5084785;28;20535;-62
2023/03/11 13:15:20;;;;;;;5.95;0.85;;;14.70;99.90;;;;;;5097734;28;20049;-63
2023/03/11 13:18:16;;;;;;;2.63;0.77;;;14.70;99.90;;;;;;5093742;28;20512;-63
2023/03/11 13:20:47;;;;;;;3.90;0.80;;;14.70;99.90;;;;;;5097580;28;20496;-63
2023/03/11 13:23:12;;;;;;;2.13;0.73;;;14.70;99.90;;;;;;5098185;28;20256;-68
2023/03/11 13:25:50;;;;;;;3.95;1.00;;;14.70;99.90;;;;;;5098525;28;20108;-63
2023/03/11 13:28:34;;;;;;;1.70;0.70;;;14.70;99.90;;;;;;5097805;28;20024;-65
2023/03/11 13:31:32;;;;;;;3.33;0.77;;;14.70;99.90;;;;;;5098475;28;20028;-62
2023/03/11 13:34:06;;;;;;;3.15;0.73;;;14.70;99.90;;;;;;5079506;28;20115;-62
2023/03/11 13:37:03;;;;;;;3.97;0.90;;;14.60;99.90;;;;;;5098126;28;20450;-63
2023/03/11 13:39:28;;;;;;;;;;;14.60;99.90;;;;;;5098063;28;20020;-62
2023/03/11 13:41:55;;;;;;;2.80;0.63;;;14.60;99.90;;;;;;5098243;28;19914;-63
2023/03/11 13:44:33;;;;;;;6.95;0.90;;;14.60;99.90;;;;;;5089978;28;20024;-62
2023/03/11 13:47:14;;;;;;;3.60;1.10;;;14.60;99.90;;;;;;5077865;28;20021;-62
2023/03/11 13:49:58;;;;;;;4.43;0.73;;;14.60;99.90;;;;;;5094045;28;20020;-63
2023/03/11 13:53:02;;;;;;;4.22;0.93;;;14.60;99.90;;;;;;5097253;28;20312;-63
2023/03/11 13:55:40;;;;;;;3.88;0.70;;;14.60;99.90;;;;;;5063894;28;20051;-64
2023/03/11 13:58:23;;;;;;;3.30;0.90;;;14.60;99.90;;;;;;5092349;28;20047;-63
2023/03/11 14:00:53;;;;;;;6.07;0.82;;;14.80;99.90;;;;;;5096073;28;20016;-62
2023/03/11 14:03:22;;;;;;;3.75;0.70;;;14.90;99.90;;;;;;5094513;28;20070;-63
2023/03/11 14:06:01;;;;;;;4.28;0.90;;;14.90;99.90;;;;;;5095726;28;20027;-63
2023/03/11 14:08:28;;;;;;;5.35;0.95;;;14.90;99.90;;;;;;5094214;28;20077;-63
2023/03/11 14:11:14;;;;;;;2.00;0.50;;;14.80;99.90;;;;;;5096763;28;20030;-63
2023/03/11 14:13:45;;;;;;;3.05;0.60;;;14.80;99.90;;;;;;5089980;28;20025;-63
2023/03/11 14:16:34;;;;;;;4.38;0.95;;;14.80;99.90;;;;;;5082885;28;20420;-63
2023/03/11 14:19:15;;;;;;;3.78;0.90;;;14.80;99.90;;;;;;5075797;28;20016;-63
2023/03/11 14:21:50;;;;;;;2.72;0.90;;;14.80;99.90;;;;;;5076476;28;20025;-63
2023/03/11 14:24:28;;;;;;;2.05;0.70;;;14.70;99.90;;;;;;5076742;28;20365;-63
2023/03/11 14:26:56;;;;;;;4.40;0.90;;;14.70;99.90;;;;;;5087677;28;20044;-65
2023/03/11 14:29:42;;;;;;;3.83;0.80;;;14.70;99.90;;;;;;5102862;28;20024;-65
2023/03/11 14:32:27;;;;;;;4.93;1.00;;;14.70;99.90;;;;;;5116194;28;20386;-63
2023/03/11 14:34:54;;;;;;;3.13;0.98;;;14.70;99.90;;;;;;5075304;28;20056;-63
2023/03/11 14:37:38;;;;;;;2.90;0.73;;;14.70;99.90;;;;;;5074734;28;20373;-64
2023/03/11 14:40:28;;;;;;;1.80;0.52;;;14.70;99.90;;;;;;5102695;28;20027;-63
2023/03/11 14:43:00;;;;;;;3.55;0.70;;;14.70;99.90;;;;;;5117093;28;20410;-63
2023/03/11 14:45:30;;;;;;;2.80;0.80;;;14.70;99.90;;;;;;5117540;28;20028;-63
2023/03/11 14:48:09;;;;;;;2.03;0.60;;;14.70;99.90;;;;;;5114908;28;20288;-63
2023/03/11 14:50:35;;;;;;;3.35;0.70;;;14.70;99.90;;;;;;5117201;28;20359;-64
2023/03/11 14:53:08;;;;;;;2.28;0.93;;;14.70;99.90;;;;;;5116880;28;20027;-64
2023/03/11 14:55:39;;;;;;;2.67;0.60;;;14.60;99.90;;;;;;5117078;28;20023;-63
2023/03/11 14:58:30;;;;;;;3.50;0.70;;;14.70;99.90;;;;;;5100811;28;20070;-63
2023/03/11 15:01:03;;;;;;;2.20;0.70;;;14.70;99.90;;;;;;5096774;28;20340;-63
2023/03/11 15:03:33;;;;;;;1.25;0.60;;;14.70;99.90;;;;;;5095266;28;20055;-63
2023/03/11 15:06:06;;;;;;;1.52;0.70;;;14.70;99.90;;;;;;5096702;28;20099;-63
2023/03/11 15:08:43;;;;;;;2.00;0.93;;;14.70;99.90;;;;;;5096016;28;20031;-63
2023/03/11 15:11:11;;;;;;;0.93;0.50;;;14.70;99.90;;;;;;5096697;28;20028;-63
2023/03/11 15:13:39;;;;;;;2.30;0.70;;;14.70;99.90;;;;;;5094930;28;20032;-63
2023/03/11 15:16:27;;;;;;;3.28;0.80;;;14.70;99.90;;;;;;5096503;28;20083;-63
2023/03/11 15:18:53;;;;;;;2.50;0.77;;;14.70;99.90;;;;;;5094733;28;20046;-63
2023/03/11 15:21:22;;;;;;;3.35;0.93;;;14.70;99.90;;;;;;5096389;28;20413;-64
2023/03/11 15:24:05;;;;;;;1.50;0.57;;;14.70;99.90;;;;;;5094638;28;20038;-63
2023/03/11 15:26:37;;;;;;;3.10;0.73;;;14.70;99.90;;;;;;5095284;28;20110;-63
2023/03/11 15:29:16;;;;;;;2.05;0.65;;;14.70;99.90;;;;;;5096213;28;20032;-63
2023/03/11 15:31:46;;;;;;;2.38;0.70;;;14.70;99.90;;;;;;5078150;28;20327;-63
2023/03/11 15:34:15;;;;;;;1.75;0.47;;;14.70;99.90;;;;;;5095108;28;20032;-63
2023/03/11 15:36:46;;;;;;;1.88;0.50;;;14.80;99.90;;;;;;5095910;28;20028;-64
2023/03/11 15:39:40;;;;;;;2.88;0.90;;;14.80;99.90;;;;;;5095917;28;20354;-63
2023/03/11 15:42:05;;;;;;;2.25;0.60;;;14.80;99.90;;;;;;5096037;28;20107;-63
2023/03/11 15:44:47;;;;;;;1.65;0.55;;;14.70;99.90;;;;;;5095514;28;20104;-63
2023/03/11 15:47:16;;;;;;;1.30;0.70;;;14.80;99.90;;;;;;5095566;28;20115;-65
2023/03/11 15:49:42;;;;;;;1.98;0.70;;;14.70;99.90;;;;;;5095032;28;20039;-63
2023/03/11 15:52:09;;;;;;;2.95;0.95;;;14.70;99.90;;;;;;5095988;28;20362;-63
2023/03/11 15:54:35;;;;;;;2.47;0.60;;;14.70;99.90;;;;;;5095476;28;20039;-65
2023/03/11 15:57:05;;;;;;;0.82;0.47;;;14.80;99.90;;;;;;5094495;28;20044;-63
2023/03/11 15:59:32;;;;;;;3.75;0.65;;;14.80;99.90;;;;;;5095394;28;20020;-63
2023/03/11 16:01:58;;;;;;;1.83;0.60;;;14.80;99.90;;;;;;5087551;28;20021;-63
2023/03/11 16:04:24;;;;;;;1.45;0.82;;;14.80;99.90;;;;;;5085778;28;20162;-63
2023/03/11 16:06:50;;;;;;;1.50;0.60;;;14.80;99.90;;;;;;5083519;28;20110;-63
2023/03/11 16:09:16;;;;;;;1.45;0.65;;;14.80;99.90;;;;;;5083671;28;20361;-64
2023/03/11 16:11:43;;;;;;;1.88;0.52;;;14.80;99.90;;;;;;5094185;28;20035;-67
2023/03/11 16:14:19;;;;;;;1.67;0.60;;;14.80;99.90;;;;;;5101349;28;20035;-64
2023/03/11 16:16:45;;;;;;;1.85;0.65;;;14.80;99.90;;;;;;5087880;28;20577;-67
2023/03/11 16:19:11;;;;;;;1.52;0.60;;;14.80;99.90;;;;;;5089578;28;20032;-64
2023/03/11 16:21:43;;;;;;;2.05;0.60;;;14.80;99.90;;;;;;5090919;28;20131;-64
2023/03/11 16:24:16;;;;;;;1.90;0.60;;;14.80;99.90;;;;;;5081943;28;20020;-65
2023/03/11 16:26:42;;;;;;;2.17;0.77;;;14.80;99.90;;;;;;5072548;28;20025;-65
2023/03/11 16:29:09;;;;;;;2.20;0.50;;;14.80;99.90;;;;;;5072235;28;20089;-65
2023/03/11 16:31:35;;;;;;;1.48;0.68;;;14.80;99.90;;;;;;5085788;28;20055;-66
2023/03/11 16:34:01;;;;;;;1.77;0.70;;;14.80;99.90;;;;;;5096046;28;20660;-65
2023/03/11 16:36:27;;;;;;;1.85;0.68;;;14.80;99.90;;;;;;5101508;28;20027;-64
2023/03/11 16:38:53;;;;;;;1.58;0.60;;;14.80;99.90;;;;;;5092006;28;20063;-65
2023/03/11 16:41:19;;;;;;;2.38;0.70;;;14.80;99.90;;;;;;5091692;28;20036;-65
2023/03/11 16:43:45;;;;;;;1.23;0.63;;;14.80;99.90;;;;;;5091660;28;20032;-65
2023/03/11 16:46:11;;;;;;;1.77;0.80;;;14.80;99.90;;;;;;5095723;28;20085;-66
2023/03/11 16:48:37;;;;;;;1.30;0.68;;;14.80;99.90;;;;;;5094264;28;20028;-65
2023/03/11 16:51:03;;;;;;;2.70;0.60;;;14.80;99.90;;;;;;5094682;28;20341;-65
2023/03/11 16:53:29;;;;;;;2.05;0.80;;;14.80;99.90;;;;;;5102369;28;20111;-64
2023/03/11 16:55:55;;;;;;;2.65;0.57;;;14.80;99.90;;;;;;5098770;28;20115;-65
2023/03/11 16:58:21;;;;;;;4.93;0.70;;;14.80;99.90;;;;;;5094666;28;20443;-65
2023/03/11 17:00:47;;;;;;;3.40;0.80;;;14.80;99.90;;;;;;5095237;28;20036;-64
2023/03/11 17:03:15;;;;;;;1.67;0.80;;;14.80;99.90;;;;;;5084173;28;20041;-64
2023/03/11 17:05:42;;;;;;;1.63;0.60;;;14.80;99.90;;;;;;5078234;28;20104;-64
2023/03/11 17:08:09;;;;;;;2.28;0.60;;;14.80;99.90;;;;;;5075782;28;20058;-63
2023/03/11 17:10:45;;;;;;;2.00;0.77;;;14.80;99.90;;;;;;5075860;28;20048;-64
2023/03/11 17:13:13;;;;;;;1.58;0.63;;;14.90;99.90;;;;;;5114592;28;20036;-64
2023/03/11 17:15:42;;;;;;;2.85;0.73;;;14.80;99.90;;;;;;5109268;28;20090;-63
2023/03/11 17:18:10;;;;;;;2.33;0.60;;;14.80;99.90;;;;;;5078706;28;20029;-64
2023/03/11 17:20:39;;;;;;;1.67;0.63;;;14.80;99.90;;;;;;5080092;28;20028;-64
2023/03/11 17:23:04;;;;;;;3.17;0.70;;;14.80;99.90;;;;;;5095566;28;20050;-63
2023/03/11 17:25:30;;;;;;;4.38;0.60;;;14.80;99.90;;;;;;5115270;28;20032;-65
2023/03/11 17:27:56;;;;;;;2.50;0.80;;;14.90;99.90;;;;;;5111688;28;20416;-65
2023/03/11 17:30:22;;;;;;;2.55;0.70;;;14.80;99.90;;;;;;5110653;28;20027;-65
2023/03/11 17:32:48;;;;;;;3.08;1.00;;;14.80;99.90;;;;;;5096940;28;20051;-66
2023/03/11 17:35:14;;;;;;;2.67;0.93;;;14.80;99.90;;;;;;5095946;28;20338;-65
2023/03/11 17:37:40;;;;;;;2.40;0.80;;;14.80;99.90;;;;;;5097941;28;20040;-65
2023/03/11 17:40:06;;;;;;;4.43;1.08;;;14.80;99.90;;;;;;5095433;28;20024;-64
2023/03/11 17:42:32;;;;;;;3.40;1.00;;;14.90;99.90;;;;;;5096371;28;20039;-64
2023/03/11 17:44:58;;;;;;;2.35;0.73;;;14.80;99.90;;;;;;5086049;28;20025;-64
2023/03/11 17:47:27;;;;;;;2.00;0.80;;;14.90;99.90;;;;;;5085016;28;20028;-66
2023/03/11 17:49:53;;;;;;;2.33;0.85;;;14.80;99.90;;;;;;5086871;28;20050;-64
2023/03/11 17:52:19;;;;;;;1.40;0.70;;;14.90;99.90;;;;;;5096507;28;20421;-63
2023/03/11 17:54:45;;;;;;;3.83;0.80;;;14.80;99.90;;;;;;5108246;28;20439;-65
2023/03/11 17:57:11;;;;;;;2.80;1.10;;;14.90;99.90;;;;;;5101716;28;20048;-65
2023/03/11 17:59:37;;;;;;;6.18;1.10;;;14.90;99.90;;;;;;5077261;28;20032;-66
2023/03/11 18:02:03;;;;;;;6.82;1.20;;;14.90;99.90;;;;;;5077533;28;20056;-65
2023/03/11 18:04:29;;;;;;;4.03;1.10;;;14.90;99.90;;;;;;5076451;28;20052;-64
2023/03/11 18:06:55;;;;;;;5.28;1.20;;;14.90;99.90;;;;;;5097806;28;20095;-64
2023/03/11 18:09:21;;;;;;;7.07;1.65;;;14.90;99.90;;;;;;5107925;28;20036;-64
2023/03/11 18:11:47;;;;;;;6.63;1.30;;;14.90;99.90;;;;;;5103094;28;20044;-65
2023/03/11 18:14:13;;;;;;;11.43;5.40;;;14.90;99.90;;;;;;5097312;28;20031;-64
2023/03/11 18:16:39;;;;;;;6.53;2.97;;;15.10;99.90;;;;;;5087190;28;20078;-64
2023/03/11 18:19:05;;;;;;;6.18;1.95;;;15.30;99.90;;;;;;5099934;28;20357;-64
2023/03/11 18:21:31;;;;;;;7.05;1.90;;;15.30;99.90;;;;;;5097974;28;20062;-63
2023/03/11 18:23:59;;;;;;;6.05;1.40;;;15.30;99.90;;;;;;5096759;28;20395;-63
2023/03/11 18:26:27;;;;;;;7.88;1.52;;;15.30;99.90;;;;;;5097422;28;20055;-63
2023/03/11 18:28:54;;;;;;;5.25;1.30;;;15.30;99.90;;;;;;5082188;28;20021;-63
2023/03/11 18:31:22;;;;;;;8.93;1.33;;;15.30;99.90;;;;;;5077033;28;20382;-63
2023/03/11 18:33:53;;;;;;;4.60;1.10;;;15.30;99.90;;;;;;5086254;28;20089;-64
2023/03/11 18:36:31;;;;;;;7.00;1.23;;;15.30;99.90;;;;;;5095625;28;20038;-65
2023/03/11 18:38:59;;;;;;;6.00;1.10;;;15.30;99.90;;;;;;5094206;28;20031;-65
2023/03/11 18:41:26;;;;;;;6.55;1.27;;;15.20;99.90;;;;;;5095870;28;20103;-65
2023/03/11 18:43:56;;;;;;;3.45;1.00;;;15.20;99.90;;;;;;5095059;28;20107;-65
2023/03/11 18:46:24;;;;;;;3.95;1.23;;;15.30;99.90;;;;;;5091787;28;20028;-65
2023/03/11 18:48:56;;;;;;;11.70;1.60;;;15.30;99.90;;;;;;5092856;28;20115;-65
2023/03/11 18:51:23;;;;;;;3.95;1.25;;;15.30;99.90;;;;;;5095608;28;20032;-65
2023/03/11 18:53:49;;;;;;;4.53;1.20;;;15.30;99.90;;;;;;5094719;28;20059;-65
2023/03/11 18:56:16;;;;;;;4.97;1.27;;;15.30;99.90;;;;;;5094189;28;20059;-67
2023/03/11 18:58:42;;;;;;;6.20;1.27;;;15.30;99.90;;;;;;5094807;28;20062;-65
2023/03/11 19:01:13;;;;;;;4.15;1.30;;;15.30;99.90;;;;;;5095431;28;20362;-67
2023/03/11 19:03:40;;;;;;;5.88;1.40;;;15.30;99.90;;;;;;5093858;28;20296;-67
2023/03/11 19:06:08;;;;;;;3.80;1.30;;;15.30;99.90;;;;;;5093692;28;20430;-65
2023/03/11 19:08:34;;;;;;;3.95;1.27;;;15.30;99.90;;;;;;5094983;28;20042;-67
2023/03/11 19:11:04;;;;;;;5.90;2.17;;;15.30;99.90;;;;;;5094914;28;20028;-65
2023/03/11 19:13:29;;;;;;;4.68;1.70;;;15.40;99.90;;;;;;5094792;28;20454;-65
2023/03/11 19:15:59;;;;;;;5.40;1.30;;;15.50;99.90;;;;;;5095000;28;20024;-65
2023/03/11 19:18:24;;;;;;;6.75;1.30;;;15.50;99.90;;;;;;5093650;28;20032;-64
2023/03/11 19:20:57;;;;;;;3.17;1.20;;;15.50;99.90;;;;;;5094807;28;20035;-65
2023/03/11 19:23:24;;;;;;;3.47;1.38;;;15.50;99.90;;;;;;5094676;28;20024;-65
2023/03/11 19:25:50;;;;;;;8.15;1.63;;;15.50;99.90;;;;;;5094799;28;20429;-66
2023/03/11 19:28:16;;;;;;;5.75;1.75;;;15.60;99.90;;;;;;5094558;28;20156;-64
2023/03/11 19:30:42;;;;;;;7.07;1.83;;;15.90;99.90;;;;;;5093437;28;20308;-64
2023/03/11 19:33:08;;;;;;;8.07;1.88;;;16.30;99.90;;;;;;5091624;28;20106;-64
2023/03/11 19:35:35;;;;;;;6.63;1.95;;;16.60;99.90;;;;;;5091624;28;20046;-64
2023/03/11 19:38:01;;;;;;;6.05;2.58;;;16.90;99.90;;;;;;5092902;28;20035;-63
2023/03/11 19:40:30;;;;;;;7.47;1.77;;;17.10;99.90;;;;;;5096405;28;20074;-62
2023/03/11 19:42:57;;;;;;;7.22;1.65;;;17.00;99.90;;;;;;5068748;28;20434;-65
2023/03/11 19:45:29;;;;;;;7.40;1.50;;;16.80;99.90;;;;;;5092502;28;20034;-63
2023/03/11 19:47:58;;;;;;;3.75;1.45;;;16.70;99.90;;;;;;5092995;28;20057;-63
2023/03/11 19:50:25;;;;;;;4.90;1.33;;;16.50;99.90;;;;;;5094036;28;20035;-64